Time;durP1;ratioP1;P1;durP2;ratioP2;P2;SDS_P1;SDS_P2;PMS_P1;PMS_P2;Temp;Humidity;BMP_temperature;BMP_pressure;BME280_temperature;BME280_humidity;BME280_pressure;Samples;Min_cycle;Max_cycle;Signal;HPM_P1;HPM_P2
2023/04/15 00:01:38;;;;;;;;;;;;;;;9.95;96.35;100387.84;7357285;19;19918;-61
2023/04/15 00:04:06;;;;;;;;;;;;;;;9.93;96.36;100395.88;7358097;19;19914;-60
2023/04/15 00:06:33;;;;;;;;;;;;;;;9.96;96.72;100392.09;7356893;19;19983;-61
2023/04/15 00:08:59;;;;;;;;;;;;;;;9.98;96.39;100390.97;7360712;19;19940;-61
2023/04/15 00:11:27;;;;;;;;;;;;;;;9.98;96.27;100395.38;7358336;19;19919;-62
2023/04/15 00:13:54;;;;;;;;;;;;;;;9.98;95.78;100403.28;7357478;19;19955;-62
2023/04/15 00:16:21;;;;;;;;;;;;;;;9.95;94.95;100408.88;7356809;19;19911;-62
2023/04/15 00:18:48;;;;;;;;;;;;;;;9.92;95.23;100398.66;7359393;19;19919;-61
2023/04/15 00:21:15;;;;;;;;;;;;;;;9.86;95.42;100400.94;7359507;19;19947;-62
2023/04/15 00:23:42;;;;;;;;;;;;;;;9.85;95.59;100412.41;7358713;19;19918;-61
2023/04/15 00:26:09;;;;;;;;;;;;;;;9.84;96.33;100409.97;7358907;19;19933;-62
2023/04/15 00:28:37;;;;;;;;;;;;;;;9.84;96.46;100416.06;7358351;19;19919;-61
2023/04/15 00:31:04;;;;;;;;;;;;;;;9.83;96.35;100427.53;7356108;19;19914;-62
2023/04/15 00:33:31;;;;;;;;;;;;;;;9.82;95.86;100414.53;7357572;19;19919;-62
2023/04/15 00:35:58;;;;;;;;;;;;;;;9.80;96.27;100424.41;7355248;19;19990;-62
2023/04/15 00:38:25;;;;;;;;;;;;;;;9.79;96.40;100431.47;7358651;19;19926;-62
2023/04/15 00:40:52;;;;;;;;;;;;;;;9.80;96.94;100427.84;7358001;19;19927;-62
2023/04/15 00:43:19;;;;;;;;;;;;;;;9.81;97.20;100426.84;7358001;19;19929;-60
2023/04/15 00:45:48;;;;;;;;;;;;;;;9.82;96.66;100425.06;7363155;19;19931;-61
2023/04/15 00:48:16;;;;;;;;;;;;;;;9.83;96.09;100431.97;7360291;19;20851;-64
2023/04/15 00:50:43;;;;;;;;;;;;;;;9.83;95.84;100430.16;7364317;19;20462;-62
2023/04/15 00:53:10;;;;;;;;;;;;;;;9.81;95.60;100434.75;7362719;19;20014;-61
2023/04/15 00:55:37;;;;;;;;;;;;;;;9.82;95.97;100439.03;7363311;19;20397;-62
2023/04/15 00:58:04;;;;;;;;;;;;;;;9.78;95.37;100436.88;7362982;19;19927;-62
2023/04/15 01:00:31;;;;;;;;;;;;;;;9.80;95.50;100437.53;7365372;19;19979;-61
2023/04/15 01:02:58;;;;;;;;;;;;;;;9.80;96.13;100442.81;7358809;19;19922;-62
2023/04/15 01:05:25;;;;;;;;;;;;;;;9.78;96.22;100439.50;7361935;19;19922;-60
2023/04/15 01:07:53;;;;;;;;;;;;;;;9.76;95.73;100444.06;7362752;19;20428;-62
2023/04/15 01:10:21;;;;;;;;;;;;;;;9.77;95.43;100456.22;7365306;19;19918;-61
2023/04/15 01:12:47;;;;;;;;;;;;;;;9.76;95.83;100455.41;7364919;19;19918;-60
2023/04/15 01:15:15;;;;;;;;;;;;;;;9.75;95.58;100466.88;7366026;19;19922;-61
2023/04/15 01:17:42;;;;;;;;;;;;;;;9.73;95.76;100471.50;7362118;19;19987;-61
2023/04/15 01:20:10;;;;;;;;;;;;;;;9.75;95.67;100471.34;7365715;19;19937;-62
2023/04/15 01:22:38;;;;;;;;;;;;;;;9.73;95.12;100471.50;7363803;19;19928;-62
2023/04/15 01:25:08;;;;;;;;;;;;;;;9.71;94.66;100464.72;7362987;19;19922;-63
2023/04/15 01:27:37;;;;;;;;;;;;;;;9.70;95.08;100477.03;7359019;19;19919;-63
2023/04/15 01:30:06;;;;;;;;;;;;;;;9.67;94.79;100480.00;7365328;19;19926;-61
2023/04/15 01:32:33;;;;;;;;;;;;;;;9.67;95.25;100484.41;7361265;19;19919;-62
2023/04/15 01:35:00;;;;;;;;;;;;;;;9.63;94.99;100493.59;7364333;19;19923;-62
2023/04/15 01:37:27;;;;;;;;;;;;;;;9.61;95.36;100485.03;7362424;19;19926;-61
2023/04/15 01:39:56;;;;;;;;;;;;;;;9.61;95.31;100495.53;7361326;19;20277;-61
2023/04/15 01:42:23;;;;;;;;;;;;;;;9.63;95.89;100499.66;7365144;19;20454;-64
2023/04/15 01:44:50;;;;;;;;;;;;;;;9.66;95.52;100504.59;7365010;19;19911;-62
2023/04/15 01:47:16;;;;;;;;;;;;;;;9.65;94.65;100505.56;7361828;19;20399;-62
2023/04/15 01:49:43;;;;;;;;;;;;;;;9.62;94.32;100511.16;7359610;19;19927;-62
2023/04/15 01:52:10;;;;;;;;;;;;;;;9.62;94.85;100512.94;7362893;19;20276;-61
2023/04/15 01:54:37;;;;;;;;;;;;;;;9.63;95.12;100519.84;7362230;19;20381;-60
2023/04/15 01:57:04;;;;;;;;;;;;;;;9.61;95.23;100519.19;7362397;19;20581;-61
2023/04/15 01:59:31;;;;;;;;;;;;;;;9.60;94.67;100512.31;7365001;19;20337;-61
2023/04/15 02:01:58;;;;;;;;;;;;;;;9.59;94.71;100527.22;7359528;19;19917;-62
2023/04/15 02:04:25;;;;;;;;;;;;;;;9.59;94.79;100529.84;7362469;19;20491;-63
2023/04/15 02:06:52;;;;;;;;;;;;;;;9.60;94.64;100530.69;7362202;19;20318;-62
2023/04/15 02:09:19;;;;;;;;;;;;;;;9.54;93.36;100534.75;7362087;19;19923;-61
2023/04/15 02:11:46;;;;;;;;;;;;;;;9.50;93.64;100533.38;7362155;19;19921;-61
2023/04/15 02:14:13;;;;;;;;;;;;;;;9.49;94.19;100533.56;7362717;19;19919;-62
2023/04/15 02:16:40;;;;;;;;;;;;;;;9.47;94.72;100536.31;7360772;19;19923;-62
2023/04/15 02:19:07;;;;;;;;;;;;;;;9.47;94.15;100538.13;7362853;19;19925;-62
2023/04/15 02:21:34;;;;;;;;;;;;;;;9.39;93.19;100552.03;7358823;19;19939;-61
2023/04/15 02:24:01;;;;;;;;;;;;;;;9.35;93.05;100546.25;7363317;19;19925;-61
2023/04/15 02:26:31;;;;;;;;;;;;;;;9.35;93.10;100554.13;7359122;19;20369;-62
2023/04/15 02:28:58;;;;;;;;;;;;;;;9.35;93.41;100553.28;7360678;19;20421;-62
2023/04/15 02:31:25;;;;;;;;;;;;;;;9.35;93.42;100563.78;7358614;19;19915;-60
2023/04/15 02:33:52;;;;;;;;;;;;;;;9.35;93.45;100569.03;7360209;19;19930;-61
2023/04/15 02:36:20;;;;;;;;;;;;;;;9.36;93.89;100570.69;7356678;19;19966;-62
2023/04/15 02:38:47;;;;;;;;;;;;;;;9.36;94.09;100575.94;7361997;19;19919;-63
2023/04/15 02:41:14;;;;;;;;;;;;;;;9.35;93.11;100572.50;7359224;19;19994;-60
2023/04/15 02:43:41;;;;;;;;;;;;;;;9.37;93.09;100574.97;7362157;19;19918;-60
2023/04/15 02:46:11;;;;;;;;;;;;;;;9.37;94.03;100574.97;7357068;19;20621;-61
2023/04/15 02:48:38;;;;;;;;;;;;;;;9.38;94.45;100576.63;7361249;19;20279;-62
2023/04/15 02:51:15;;;;;;;;;;;;;;;9.37;94.13;100582.84;7359870;19;20333;-62
2023/04/15 02:53:42;;;;;;;;;;;;;;;9.38;94.17;100592.38;7360784;19;20293;-62
2023/04/15 02:56:10;;;;;;;;;;;;;;;9.38;94.41;100589.75;7357636;19;19919;-62
2023/04/15 02:58:36;;;;;;;;;;;;;;;9.39;94.55;100605.38;7361486;19;20407;-63
2023/04/15 03:01:03;;;;;;;;;;;;;;;9.38;94.52;100602.88;7359343;19;19936;-60
2023/04/15 03:03:30;;;;;;;;;;;;;;;9.39;94.11;100610.63;7360512;19;19986;-61
2023/04/15 03:05:57;;;;;;;;;;;;;;;9.40;94.41;100606.16;7357905;19;20261;-62
2023/04/15 03:08:25;;;;;;;;;;;;;;;9.39;94.41;100597.50;7358838;19;19923;-62
2023/04/15 03:10:52;;;;;;;;;;;;;;;9.40;94.37;100611.41;7357745;19;19919;-65
2023/04/15 03:13:20;;;;;;;;;;;;;;;9.37;93.71;100602.06;7359790;19;19919;-63
2023/04/15 03:15:47;;;;;;;;;;;;;;;9.35;93.91;100611.88;7360135;19;20240;-61
2023/04/15 03:18:14;;;;;;;;;;;;;;;9.36;94.24;100618.78;7357569;19;19927;-61
2023/04/15 03:20:41;;;;;;;;;;;;;;;9.37;94.48;100619.59;7360895;19;19927;-60
2023/04/15 03:23:08;;;;;;;;;;;;;;;9.38;95.00;100626.50;7361087;19;20471;-61
2023/04/15 03:25:36;;;;;;;;;;;;;;;9.39;94.71;100625.56;7360224;19;20448;-59
2023/04/15 03:28:03;;;;;;;;;;;;;;;9.39;94.28;100633.44;7359972;19;20614;-62
2023/04/15 03:30:30;;;;;;;;;;;;;;;9.38;94.25;100637.03;7360222;19;19922;-64
2023/04/15 03:32:57;;;;;;;;;;;;;;;9.40;94.82;100640.31;7357642;19;19915;-62
2023/04/15 03:35:24;;;;;;;;;;;;;;;9.40;94.67;100649.00;7359618;19;20246;-61
2023/04/15 03:37:51;;;;;;;;;;;;;;;9.41;94.39;100653.28;7360229;19;19919;-60
2023/04/15 03:40:20;;;;;;;;;;;;;;;9.41;94.64;100653.28;7360172;19;19950;-61
2023/04/15 03:42:47;;;;;;;;;;;;;;;9.41;94.99;100660.34;7359124;19;20333;-60
2023/04/15 03:45:14;;;;;;;;;;;;;;;9.44;94.89;100666.13;7358365;19;19955;-61
2023/04/15 03:47:41;;;;;;;;;;;;;;;9.43;94.55;100668.91;7353760;19;20432;-61
2023/04/15 03:50:08;;;;;;;;;;;;;;;9.39;94.50;100672.81;7359759;19;19925;-61
2023/04/15 03:52:35;;;;;;;;;;;;;;;9.40;94.90;100675.25;7355093;19;19923;-60
2023/04/15 03:55:02;;;;;;;;;;;;;;;9.43;95.26;100677.63;7355780;19;19922;-62
2023/04/15 03:57:28;;;;;;;;;;;;;;;9.43;95.16;100682.03;7359458;19;19914;-62
2023/04/15 03:59:55;;;;;;;;;;;;;;;9.42;94.67;100681.22;7362513;19;19919;-59
2023/04/15 04:02:22;;;;;;;;;;;;;;;9.40;94.68;100685.78;7359936;19;20819;-62
2023/04/15 04:04:49;;;;;;;;;;;;;;;9.40;94.56;100690.19;7357295;19;19923;-65
2023/04/15 04:07:16;;;;;;;;;;;;;;;9.38;94.39;100695.63;7358371;19;19919;-62
2023/04/15 04:09:43;;;;;;;;;;;;;;;9.41;94.72;100694.47;7360771;19;19923;-62
2023/04/15 04:12:12;;;;;;;;;;;;;;;9.39;94.43;100706.94;7360203;19;19947;-62
2023/04/15 04:14:39;;;;;;;;;;;;;;;9.38;94.47;100711.38;7361501;19;20283;-62
2023/04/15 04:17:06;;;;;;;;;;;;;;;9.41;95.04;100713.69;7358012;19;19947;-62
2023/04/15 04:19:36;;;;;;;;;;;;;;;9.38;94.60;100710.53;7361397;19;19923;-62
2023/04/15 04:22:03;;;;;;;;;;;;;;;9.38;94.51;100715.78;7365976;19;21978;-62
2023/04/15 04:24:30;;;;;;;;;;;;;;;9.38;95.07;100721.03;7367987;19;20280;-62
2023/04/15 04:26:57;;;;;;;;;;;;;;;9.41;95.49;100723.34;7362238;19;20336;-61
2023/04/15 04:29:23;;;;;;;;;;;;;;;9.40;95.03;100738.28;7363707;19;20300;-61
2023/04/15 04:31:50;;;;;;;;;;;;;;;9.36;94.17;100729.06;7363940;19;19915;-59
2023/04/15 04:34:17;;;;;;;;;;;;;;;9.37;94.69;100743.00;7365954;19;19939;-61
2023/04/15 04:36:44;;;;;;;;;;;;;;;9.33;94.07;100746.91;7361399;19;21765;-60
2023/04/15 04:39:11;;;;;;;;;;;;;;;9.33;93.93;100750.38;7367152;19;20211;-59
2023/04/15 04:41:38;;;;;;;;;;;;;;;9.32;94.21;100756.59;7366302;19;19922;-61
2023/04/15 04:44:04;;;;;;;;;;;;;;;9.33;94.30;100765.28;7366316;19;20291;-61
2023/04/15 04:46:31;;;;;;;;;;;;;;;9.27;94.13;100766.69;7361473;19;19942;-60
2023/04/15 04:48:58;;;;;;;;;;;;;;;9.28;94.76;100759.66;7364985;19;19926;-60
2023/04/15 04:51:25;;;;;;;;;;;;;;;9.26;94.57;100772.91;7363752;19;19944;-61
2023/04/15 04:53:52;;;;;;;;;;;;;;;9.27;95.13;100774.56;7364337;19;19930;-61
2023/04/15 04:56:19;;;;;;;;;;;;;;;9.30;95.35;100776.06;7366873;19;19915;-61
2023/04/15 04:58:46;;;;;;;;;;;;;;;9.32;95.55;100782.84;7368223;19;20333;-61
2023/04/15 05:01:13;;;;;;;;;;;;;;;9.33;95.49;100791.53;7361287;19;20339;-61
2023/04/15 05:03:40;;;;;;;;;;;;;;;9.34;95.89;100798.44;7364022;19;19996;-61
2023/04/15 05:06:07;;;;;;;;;;;;;;;9.36;95.98;100794.69;7360893;19;19918;-61
2023/04/15 05:08:35;;;;;;;;;;;;;;;9.36;95.60;100802.56;7364664;19;19927;-62
2023/04/15 05:11:03;;;;;;;;;;;;;;;9.35;95.54;100805.34;7361271;19;19915;-60
2023/04/15 05:13:30;;;;;;;;;;;;;;;9.37;94.95;100813.91;7362345;19;19915;-61
2023/04/15 05:15:57;;;;;;;;;;;;;;;9.38;95.15;100818.19;7365906;19;19923;-63
2023/04/15 05:18:27;;;;;;;;;;;;;;;9.36;94.81;100823.56;7361678;19;19922;-62
2023/04/15 05:20:54;;;;;;;;;;;;;;;9.36;95.26;100828.81;7364475;19;19919;-61
2023/04/15 05:23:21;;;;;;;;;;;;;;;9.39;95.47;100843.47;7363378;19;19923;-61
2023/04/15 05:25:48;;;;;;;;;;;;;;;9.40;95.19;100839.88;7361821;19;19927;-62
2023/04/15 05:28:15;;;;;;;;;;;;;;;9.40;95.26;100853.81;7364563;19;19918;-63
2023/04/15 05:30:42;;;;;;;;;;;;;;;9.42;95.37;100854.50;7362399;19;19934;-62
2023/04/15 05:33:09;;;;;;;;;;;;;;;9.45;95.67;100863.88;7359007;19;20258;-61
2023/04/15 05:35:36;;;;;;;;;;;;;;;9.46;95.79;100865.53;7361078;19;19914;-62
2023/04/15 05:38:03;;;;;;;;;;;;;;;9.48;95.63;100881.16;7366004;19;19933;-62
2023/04/15 05:40:33;;;;;;;;;;;;;;;9.47;95.35;100882.97;7363113;19;20577;-61
2023/04/15 05:43:00;;;;;;;;;;;;;;;9.49;95.45;100901.22;7361046;19;20647;-61
2023/04/15 05:45:27;;;;;;;;;;;;;;;9.55;95.74;100905.91;7362954;19;19942;-62
2023/04/15 05:47:54;;;;;;;;;;;;;;;9.56;95.83;100916.25;7359031;19;19911;-60
2023/04/15 05:50:23;;;;;;;;;;;;;;;9.59;96.06;100920.38;7361204;19;19932;-63
2023/04/15 05:52:50;;;;;;;;;;;;;;;9.57;95.61;100925.78;7357601;19;19934;-61
2023/04/15 05:55:17;;;;;;;;;;;;;;;9.56;95.27;100933.78;7361603;19;19938;-62
2023/04/15 05:57:44;;;;;;;;;;;;;;;9.58;94.99;100942.38;7361928;19;19918;-62
2023/04/15 06:00:12;;;;;;;;;;;;;;;9.59;95.25;100942.22;7363972;19;19914;-60
2023/04/15 06:02:38;;;;;;;;;;;;;;;9.61;95.27;100949.94;7359695;19;19926;-61
2023/04/15 06:05:08;;;;;;;;;;;;;;;9.62;95.13;100956.88;7363470;19;20305;-63
2023/04/15 06:07:36;;;;;;;;;;;;;;;9.61;94.48;100961.28;7359504;19;19994;-61
2023/04/15 06:10:03;;;;;;;;;;;;;;;9.60;94.49;100964.09;7363561;19;19923;-62
2023/04/15 06:12:30;;;;;;;;;;;;;;;9.61;94.49;100958.66;7362608;19;19914;-62
2023/04/15 06:14:57;;;;;;;;;;;;;;;9.60;94.46;100967.50;7364237;19;19919;-61
2023/04/15 06:17:25;;;;;;;;;;;;;;;9.61;95.10;100960.47;7358286;19;20923;-63
2023/04/15 06:19:55;;;;;;;;;;;;;;;9.61;95.24;100969.16;7359457;19;19911;-63
2023/04/15 06:22:23;;;;;;;;;;;;;;;9.61;94.90;100970.97;7361443;19;19978;-61
2023/04/15 06:24:50;;;;;;;;;;;;;;;9.62;94.40;100977.88;7364887;19;19947;-61
2023/04/15 06:27:17;;;;;;;;;;;;;;;9.64;94.61;100983.84;7359224;19;20352;-62
2023/04/15 06:29:45;;;;;;;;;;;;;;;9.64;94.46;100982.03;7362664;19;21256;-65
2023/04/15 06:32:11;;;;;;;;;;;;;;;9.66;94.48;100987.97;7361361;19;20506;-63
2023/04/15 06:34:38;;;;;;;;;;;;;;;9.71;94.79;100998.88;7360450;19;21208;-61
2023/04/15 06:37:05;;;;;;;;;;;;;;;9.76;94.53;101001.06;7356662;19;20263;-62
2023/04/15 06:39:32;;;;;;;;;;;;;;;9.76;94.20;100998.44;7360685;19;20554;-64
2023/04/15 06:42:00;;;;;;;;;;;;;;;9.79;93.60;101012.13;7361344;19;20311;-62
2023/04/15 06:44:28;;;;;;;;;;;;;;;9.81;93.01;101012.81;7361256;19;19935;-63
2023/04/15 06:46:56;;;;;;;;;;;;;;;9.86;93.24;101017.63;7358561;19;19927;-62
2023/04/15 06:49:23;;;;;;;;;;;;;;;9.90;93.25;101028.69;7360573;19;20180;-63
2023/04/15 06:51:50;;;;;;;;;;;;;;;9.96;92.94;101043.88;7360953;19;20379;-62
2023/04/15 06:54:17;;;;;;;;;;;;;;;9.99;93.45;101033.91;7361104;19;19915;-63
2023/04/15 06:56:44;;;;;;;;;;;;;;;10.03;93.15;101047.59;7361139;19;19923;-61
2023/04/15 06:59:11;;;;;;;;;;;;;;;10.05;92.90;101054.38;7361873;19;19944;-63
2023/04/15 07:01:39;;;;;;;;;;;;;;;10.05;92.63;101054.38;7360006;19;19923;-63
2023/04/15 07:04:06;;;;;;;;;;;;;;;10.10;92.44;101065.28;7360249;19;19919;-61
2023/04/15 07:06:34;;;;;;;;;;;;;;;10.16;91.09;101064.72;7359060;19;19931;-61
2023/04/15 07:09:02;;;;;;;;;;;;;;;10.20;91.85;101063.50;7360700;19;19943;-62
2023/04/15 07:11:29;;;;;;;;;;;;;;;10.22;91.01;101073.84;7360232;19;20475;-62
2023/04/15 07:13:56;;;;;;;;;;;;;;;10.25;91.31;101076.19;7360486;19;20751;-63
2023/04/15 07:16:23;;;;;;;;;;;;;;;10.24;90.60;101099.03;7358194;19;19922;-61
2023/04/15 07:18:54;;;;;;;;;;;;;;;10.20;90.62;101095.03;7360161;19;19949;-62
2023/04/15 07:21:21;;;;;;;;;;;;;;;10.18;90.69;101099.59;7359502;19;19935;-61
2023/04/15 07:23:48;;;;;;;;;;;;;;;10.15;91.14;101115.66;7361858;19;19999;-63
2023/04/15 07:26:15;;;;;;;;;;;;;;;10.18;91.41;101110.13;7359532;19;20406;-63
2023/04/15 07:28:42;;;;;;;;;;;;;;;10.17;91.60;101115.50;7358337;19;19923;-62
2023/04/15 07:31:09;;;;;;;;;;;;;;;10.17;91.33;101124.22;7359354;19;19926;-65
2023/04/15 07:33:36;;;;;;;;;;;;;;;10.18;91.61;101125.91;7356925;19;19919;-62
2023/04/15 07:36:03;;;;;;;;;;;;;;;10.19;90.81;101127.56;7359539;19;19925;-60
2023/04/15 07:38:30;;;;;;;;;;;;;;;10.22;91.04;101136.94;7360028;19;19919;-65
2023/04/15 07:40:57;;;;;;;;;;;;;;;10.24;90.55;101146.38;7360012;19;20344;-62
2023/04/15 07:43:24;;;;;;;;;;;;;;;10.21;90.10;101153.69;7360258;19;20250;-62
2023/04/15 07:45:50;;;;;;;;;;;;;;;10.20;90.47;101154.69;7359102;19;19939;-62
2023/04/15 07:48:17;;;;;;;;;;;;;;;10.20;90.82;101163.41;7358214;19;20252;-62
2023/04/15 07:50:44;;;;;;;;;;;;;;;10.23;91.10;101172.78;7358191;19;19990;-64
2023/04/15 07:53:12;;;;;;;;;;;;;;;10.25;91.11;101176.13;7356345;19;19925;-62
2023/04/15 07:55:39;;;;;;;;;;;;;;;10.25;90.75;101174.31;7356675;19;19923;-63
2023/04/15 07:58:06;;;;;;;;;;;;;;;10.28;91.14;101181.09;7359250;19;20221;-62
2023/04/15 08:00:33;;;;;;;;;;;;;;;10.28;91.25;101179.28;7358052;19;19914;-62
2023/04/15 08:03:00;;;;;;;;;;;;;;;10.28;90.64;101188.97;7357404;19;20331;-61
2023/04/15 08:05:27;;;;;;;;;;;;;;;10.34;90.83;101193.69;7358597;19;19919;-61
2023/04/15 08:07:55;;;;;;;;;;;;;;;10.41;90.51;101196.56;7356210;19;21517;-62
2023/04/15 08:10:22;;;;;;;;;;;;;;;10.48;91.19;101200.28;7361034;19;19927;-63
2023/04/15 08:12:49;;;;;;;;;;;;;;;10.56;90.67;101201.25;7357996;19;20574;-62
2023/04/15 08:15:16;;;;;;;;;;;;;;;10.64;89.79;101205.78;7360789;19;19961;-63
2023/04/15 08:17:43;;;;;;;;;;;;;;;10.68;89.14;101207.13;7355312;19;19915;-62
2023/04/15 08:20:10;;;;;;;;;;;;;;;10.73;89.31;101215.44;7358838;19;20069;-62
2023/04/15 08:22:37;;;;;;;;;;;;;;;10.76;89.28;101206.44;7357026;19;20466;-62
2023/04/15 08:25:04;;;;;;;;;;;;;;;10.78;88.96;101209.72;7359517;19;19911;-62
2023/04/15 08:27:31;;;;;;;;;;;;;;;10.83;88.66;101218.84;7356744;19;19919;-61
2023/04/15 08:29:59;;;;;;;;;;;;;;;10.89;88.85;101225.34;7358889;19;20002;-62
2023/04/15 08:32:29;;;;;;;;;;;;;;;10.96;88.02;101226.44;7354742;19;19938;-62
2023/04/15 08:34:56;;;;;;;;;;;;;;;10.97;87.23;101228.91;7359394;19;19918;-62
2023/04/15 08:37:22;;;;;;;;;;;;;;;10.95;86.57;101241.41;7357303;19;20537;-62
2023/04/15 08:39:49;;;;;;;;;;;;;;;10.95;87.64;101235.31;7358761;19;20651;-65
2023/04/15 08:42:18;;;;;;;;;;;;;;;10.96;88.03;101236.97;7357234;19;20296;-62
2023/04/15 08:44:47;;;;;;;;;;;;;;;11.02;87.40;101250.34;7357073;19;20644;-62
2023/04/15 08:47:17;;;;;;;;;;;;;;;11.06;87.51;101245.66;7356141;19;19911;-62
2023/04/15 08:49:43;;;;;;;;;;;;;;;11.06;86.26;101261.44;7356949;19;21257;-63
2023/04/15 08:52:11;;;;;;;;;;;;;;;11.05;86.49;101263.25;7357234;19;19921;-62
2023/04/15 08:54:38;;;;;;;;;;;;;;;11.06;86.92;101267.56;7356174;19;19918;-63
2023/04/15 08:57:05;;;;;;;;;;;;;;;11.05;87.16;101268.50;7358253;19;19919;-61
2023/04/15 08:59:32;;;;;;;;;;;;;;;11.05;87.56;101283.47;7360608;19;20497;-62
2023/04/15 09:01:59;;;;;;;;;;;;;;;11.06;87.30;101267.56;7354593;19;20478;-63
2023/04/15 09:04:27;;;;;;;;;;;;;;;11.06;86.51;101285.16;7359473;19;19915;-62
2023/04/15 09:06:54;;;;;;;;;;;;;;;11.02;86.39;101281.16;7360188;19;19914;-63
2023/04/15 09:09:21;;;;;;;;;;;;;;;11.06;86.52;101291.25;7366871;19;19955;-63
2023/04/15 09:11:50;;;;;;;;;;;;;;;11.11;86.23;101293.44;7363589;19;21914;-63
2023/04/15 09:14:17;;;;;;;;;;;;;;;11.14;86.31;101301.03;7365397;19;19933;-61
2023/04/15 09:16:54;;;;;;;;;;;;;;;11.19;85.78;101305.88;7363326;19;20258;-62
2023/04/15 09:19:22;;;;;;;;;;;;;;;11.24;85.75;101306.28;7362500;19;19919;-65
2023/04/15 09:21:50;;;;;;;;;;;;;;;11.32;85.89;101317.75;7362429;19;19918;-62
2023/04/15 09:24:17;;;;;;;;;;;;;;;11.38;85.79;101317.16;7364225;19;19922;-62
2023/04/15 09:26:44;;;;;;;;;;;;;;;11.45;85.43;101323.50;7362086;19;20409;-62
2023/04/15 09:29:12;;;;;;;;;;;;;;;11.52;84.77;101329.03;7364495;19;19929;-63
2023/04/15 09:31:40;;;;;;;;;;;;;;;11.56;84.09;101333.88;7362590;19;19926;-61
2023/04/15 09:34:07;;;;;;;;;;;;;;;11.59;83.63;101352.00;7362798;19;19930;-61
2023/04/15 09:36:50;;;;;;;;;;;;;;;11.63;84.21;101355.16;7361960;19;19915;-61
2023/04/15 09:39:17;;;;;;;;;;;;;;;11.66;83.93;101364.59;7362164;19;19986;-61
2023/04/15 09:41:44;;;;;;;;;;;;;;;11.70;84.11;101368.59;7363068;19;19919;-62
2023/04/15 09:44:21;;;;;;;;;;;;;;;11.75;84.48;101377.75;7365414;19;20582;-63
2023/04/15 09:46:48;;;;;;;;;;;;;;;11.79;84.65;101380.94;7362196;19;19915;-63
2023/04/15 09:49:16;;;;;;;;;;;;;;;11.83;84.57;101392.88;7360180;19;20276;-62
2023/04/15 09:51:43;;;;;;;;;;;;;;;11.84;83.29;101405.88;7360665;19;19958;-61
2023/04/15 09:54:33;;;;;;;;;;;;;;;11.78;83.55;101409.13;7363013;19;19918;-62
2023/04/15 09:57:04;;;;;;;;;;;;;;;11.73;83.54;101407.91;7364168;19;19911;-62
2023/04/15 09:59:31;;;;;;;;;;;;;;;11.64;83.45;101414.81;7364185;19;20159;-63
2023/04/15 10:01:58;;;;;;;;;;;;;;;11.57;84.04;101417.22;7363069;19;19922;-61
2023/04/15 10:04:27;;;;;;;;;;;;;;;11.60;84.44;101413.47;7361532;19;20624;-62
2023/04/15 10:06:54;;;;;;;;;;;;;;;11.62;84.72;101413.31;7362558;19;19926;-63
2023/04/15 10:09:21;;;;;;;;;;;;;;;11.67;84.84;101419.81;7361923;19;21258;-61
2023/04/15 10:11:49;;;;;;;;;;;;;;;11.67;84.40;101421.63;7364803;19;20521;-63
2023/04/15 10:14:17;;;;;;;;;;;;;;;11.75;84.31;101416.47;7364346;19;19936;-62
2023/04/15 10:16:47;;;;;;;;;;;;;;;11.87;84.71;101425.88;7360180;19;20304;-62
2023/04/15 10:19:18;;;;;;;;;;;;;;;11.96;84.06;101428.47;7361120;19;19921;-63
2023/04/15 10:21:45;;;;;;;;;;;;;;;12.04;82.54;101432.19;7360893;19;19946;-61
2023/04/15 10:24:15;;;;;;;;;;;;;;;12.05;82.16;101439.91;7363352;19;19922;-62
2023/04/15 10:26:43;;;;;;;;;;;;;;;12.13;82.19;101442.66;7357669;19;19954;-63
2023/04/15 10:29:10;;;;;;;;;;;;;;;12.23;82.09;101451.34;7361063;19;19929;-62
2023/04/15 10:31:37;;;;;;;;;;;;;;;12.30;80.91;101455.03;7361614;19;19941;-62
2023/04/15 10:34:05;;;;;;;;;;;;;;;12.36;81.12;101462.38;7359528;19;19935;-62
2023/04/15 10:36:32;;;;;;;;;;;;;;;12.38;80.37;101472.78;7359653;19;20659;-61
2023/04/15 10:38:59;;;;;;;;;;;;;;;12.31;79.25;101477.00;7363251;19;19947;-61
2023/04/15 10:41:30;;;;;;;;;;;;;;;12.28;79.61;101475.50;7360209;19;19915;-63
2023/04/15 10:44:00;;;;;;;;;;;;;;;12.26;79.56;101485.34;7359720;19;19918;-62
2023/04/15 10:46:29;;;;;;;;;;;;;;;12.21;79.47;101477.03;7357547;19;19933;-61
2023/04/15 10:48:57;;;;;;;;;;;;;;;12.24;80.00;101481.22;7358345;19;20529;-62
2023/04/15 10:51:31;;;;;;;;;;;;;;;12.24;80.06;101492.56;7360171;19;19919;-62
2023/04/15 10:53:58;;;;;;;;;;;;;;;12.22;79.88;101483.16;7363380;19;19915;-62
2023/04/15 10:56:27;;;;;;;;;;;;;;;12.18;80.10;101493.19;7361480;19;19961;-61
2023/04/15 10:58:54;;;;;;;;;;;;;;;12.15;80.34;101492.63;7361993;19;19918;-62
2023/04/15 11:01:22;;;;;;;;;;;;;;;12.15;79.96;101490.00;7358190;19;20399;-62
2023/04/15 11:03:50;;;;;;;;;;;;;;;12.16;80.11;101497.75;7360356;19;19926;-62
2023/04/15 11:06:17;;;;;;;;;;;;;;;12.18;80.01;101493.19;7359882;19;21606;-62
2023/04/15 11:08:53;;;;;;;;;;;;;;;12.17;78.83;101499.44;7358983;19;19937;-62
2023/04/15 11:11:19;;;;;;;;;;;;;;;12.17;79.28;101509.16;7361511;19;20281;-61
2023/04/15 11:13:48;;;;;;;;;;;;;;;12.22;79.58;101507.75;7359255;19;19922;-63
2023/04/15 11:16:15;;;;;;;;;;;;;;;12.26;79.14;101503.81;7356251;19;19925;-60
2023/04/15 11:18:52;;;;;;;;;;;;;;;12.32;78.22;101511.16;7357007;19;19929;-61
2023/04/15 11:21:23;;;;;;;;;;;;;;;12.36;77.75;101501.97;7362037;19;19925;-63
2023/04/15 11:23:50;;;;;;;;;;;;;;;12.48;77.75;101510.50;7361619;19;20849;-62
2023/04/15 11:26:17;;;;;;;;;;;;;;;12.57;77.61;101520.19;7360097;19;19929;-61
2023/04/15 11:28:45;;;;;;;;;;;;;;;12.74;75.58;101521.19;7355827;19;20418;-61
2023/04/15 11:31:13;;;;;;;;;;;;;;;12.85;75.50;101516.50;7358676;19;19923;-62
2023/04/15 11:33:49;;;;;;;;;;;;;;;12.94;75.14;101514.78;7357065;19;19923;-62
2023/04/15 11:36:16;;;;;;;;;;;;;;;13.10;75.07;101528.16;7360694;19;19934;-63
2023/04/15 11:38:46;;;;;;;;;;;;;;;13.22;74.86;101528.75;7360183;19;19939;-62
2023/04/15 11:41:13;;;;;;;;;;;;;;;13.36;74.54;101522.09;7361256;19;19934;-61
2023/04/15 11:43:42;;;;;;;;;;;;;;;13.45;73.03;101537.03;7359994;19;19933;-61
2023/04/15 11:46:09;;;;;;;;;;;;;;;13.55;72.57;101529.84;7356139;19;19957;-62
2023/04/15 11:48:40;;;;;;;;;;;;;;;13.62;72.35;101538.78;7356150;19;19930;-62
2023/04/15 11:51:07;;;;;;;;;;;;;;;13.75;72.10;101541.03;7358005;19;19927;-62
2023/04/15 11:53:41;;;;;;;;;;;;;;;13.79;72.55;101539.75;7354399;19;19934;-62
2023/04/15 11:56:10;;;;;;;;;;;;;;;13.81;73.00;101538.63;7358451;19;19990;-60
2023/04/15 11:58:37;;;;;;;;;;;;;;;13.88;72.69;101546.75;7360857;19;20379;-64
2023/04/15 12:01:05;;;;;;;;;;;;;;;13.86;72.37;101541.63;7358715;19;20347;-61
2023/04/15 12:03:42;;;;;;;;;;;;;;;13.86;72.81;101540.78;7358282;19;20403;-64
2023/04/15 12:06:15;;;;;;;;;;;;;;;13.91;72.58;101541.16;7355117;19;20499;-62
2023/04/15 12:08:52;;;;;;;;;;;;;;;13.98;71.40;101542.16;7359318;19;19923;-65
2023/04/15 12:11:20;;;;;;;;;;;;;;;14.08;71.99;101549.00;7359314;19;19929;-62
2023/04/15 12:13:48;;;;;;;;;;;;;;;14.12;71.68;101555.63;7359584;19;20340;-62
2023/04/15 12:16:17;;;;;;;;;;;;;;;14.18;72.57;101553.34;7355675;19;20346;-66
2023/04/15 12:18:46;;;;;;;;;;;;;;;14.24;71.49;101555.38;7360817;19;20445;-61
2023/04/15 12:21:13;;;;;;;;;;;;;;;14.20;69.81;101559.31;7356829;19;20014;-63
2023/04/15 12:23:48;;;;;;;;;;;;;;;14.15;69.68;101567.75;7357426;19;19923;-63
2023/04/15 12:26:16;;;;;;;;;;;;;;;14.14;68.88;101572.19;7357731;19;20037;-63
2023/04/15 12:28:43;;;;;;;;;;;;;;;14.20;69.97;101569.91;7356914;19;19919;-64
2023/04/15 12:31:10;;;;;;;;;;;;;;;14.29;70.26;101582.19;7357546;19;19914;-62
2023/04/15 12:33:38;;;;;;;;;;;;;;;14.40;68.78;101574.00;7357641;19;19923;-62
2023/04/15 12:36:05;;;;;;;;;;;;;;;14.47;68.78;101578.53;7356036;19;19922;-61
2023/04/15 12:38:32;;;;;;;;;;;;;;;14.60;67.58;101582.53;7352692;19;19925;-63
2023/04/15 12:40:59;;;;;;;;;;;;;;;14.66;67.13;101581.88;7362432;19;20002;-62
2023/04/15 12:43:26;;;;;;;;;;;;;;;14.63;66.26;101580.38;7365023;19;19960;-61
2023/04/15 12:45:53;;;;;;;;;;;;;;;14.57;66.31;101583.69;7362793;19;20328;-62